Time;durP1;ratioP1;P1;durP2;ratioP2;P2;SDS_P1;SDS_P2;PMS_P1;PMS_P2;Temp;Humidity;BMP_temperature;BMP_pressure;BME280_temperature;BME280_humidity;BME280_pressure;Samples;Min_cycle;Max_cycle;Signal;HPM_P1;HPM_P2
2022/10/26 00:00:15;;;;;;;21.02;8.20;;;;;;;6.13;86.75;101970.19;4916529;28;21822;-61
2022/10/26 00:02:57;;;;;;;19.40;7.80;;;;;;;6.34;86.27;101963.03;4897432;28;20089;-60
2022/10/26 00:05:37;;;;;;;18.98;7.70;;;;;;;6.44;86.46;101954.66;4900528;28;20044;-60
2022/10/26 00:08:17;;;;;;;14.32;7.68;;;;;;;6.69;86.15;101965.72;4913423;28;20321;-60
2022/10/26 00:11:15;;;;;;;21.63;7.70;;;;;;;6.91;86.04;101952.47;4892709;28;20075;-60
2022/10/26 00:14:07;;;;;;;18.60;6.18;;;;;;;7.13;85.26;101955.56;4899932;28;20033;-59
2022/10/26 00:16:57;;;;;;;12.57;6.45;;;;;;;7.35;84.84;101957.84;4895653;28;20252;-61
2022/10/26 00:19:47;;;;;;;20.33;6.90;;;;;;;7.53;84.30;101943.53;4896288;28;20049;-63
2022/10/26 00:22:30;;;;;;;17.00;5.47;;;;;;;7.65;84.05;101949.00;4895334;28;20219;-62
2022/10/26 00:25:26;;;;;;;19.30;5.80;;;;;;;7.80;83.41;101943.28;4896458;28;20041;-62
2022/10/26 00:28:15;;;;;;;13.50;4.85;;;;;;;8.00;83.23;101941.09;4906911;28;20121;-62
2022/10/26 00:31:03;;;;;;;12.40;4.20;;;;;;;8.09;82.72;101946.50;4864243;28;20045;-63
2022/10/26 00:33:51;;;;;;;11.35;4.93;;;;;;;8.25;82.74;101952.03;4943143;27;20039;-62
2022/10/26 00:36:30;;;;;;;12.77;4.40;;;;;;;8.42;82.26;101935.03;4902482;28;20070;-63
2022/10/26 00:39:18;;;;;;;18.70;5.35;;;;;;;8.42;81.26;101924.63;4934817;27;20493;-61
2022/10/26 00:42:01;;;;;;;8.65;4.50;;;;;;;8.59;80.28;101932.75;4922091;28;20044;-62
2022/10/26 00:45:17;;;;;;;16.95;4.70;;;;;;;8.67;79.66;101930.28;4895128;28;20043;-63
2022/10/26 00:48:30;;;;;;;11.57;3.78;;;;;;;8.66;79.72;101933.72;4964724;27;20483;-62
2022/10/26 00:51:16;;;;;;;17.67;3.90;;;;;;;8.83;80.22;101932.28;4927629;28;20316;-63
2022/10/26 00:57:20;;;;;;;14.80;3.88;;;;;;;8.94;80.63;101938.59;4991234;27;20069;-62
2022/10/26 01:00:31;;;;;;;12.18;3.53;;;;;;;9.03;80.87;101925.69;4942733;28;20070;-63
2022/10/26 01:03:20;;;;;;;11.30;3.63;;;;;;;8.66;80.16;101845.13;4978588;27;20073;-63
2022/10/26 01:06:08;;;;;;;15.60;4.00;;;;;;;9.21;80.15;101922.53;4904882;27;20101;-63
2022/10/26 01:08:45;;;;;;;6.50;3.10;;;;;;;9.33;79.37;101903.56;4961851;27;20292;-63
2022/10/26 01:11:33;;;;;;;12.48;3.13;;;;;;;9.37;79.13;101910.59;4943210;28;20517;-62
2022/10/26 01:14:41;;;;;;;8.13;2.40;;;;;;;9.48;78.44;101903.81;4972042;27;20631;-63
2022/10/26 01:17:41;;;;;;;11.27;3.28;;;;;;;9.47;77.82;101891.59;4983238;27;20054;-63
2022/10/26 01:21:01;;;;;;;8.32;2.42;;;;;;;9.47;76.78;101895.94;4967730;27;20048;-63
2022/10/26 01:24:06;;;;;;;6.80;2.60;;;;;;;9.42;76.85;101890.66;4956817;27;21102;-63
2022/10/26 01:27:11;;;;;;;8.32;2.58;;;;;;;9.52;76.37;101899.50;4973988;27;20338;-63
2022/10/26 01:33:38;;;;;;;12.50;2.88;;;;;;;9.66;74.38;101886.63;4988971;27;20046;-63
2022/10/26 01:36:29;;;;;;;6.03;2.47;;;;;;;9.71;75.04;101874.53;4971525;27;20054;-65
2022/10/26 01:39:23;;;;;;;8.52;2.75;;;;;;;9.83;74.06;101874.66;4940772;27;20048;-62
2022/10/26 01:42:18;;;;;;;11.02;3.22;;;;;;;9.69;73.57;101834.47;4946256;27;20055;-63
2022/10/26 01:45:42;;;;;;;7.45;2.42;;;;;;;9.99;73.00;101864.44;4967015;27;20035;-62
2022/10/26 01:48:21;;;;;;;8.55;2.92;;;;;;;10.10;73.34;101852.34;4992901;27;20064;-63
2022/10/26 01:51:07;;;;;;;8.27;2.63;;;;;;;10.15;70.75;101845.44;4986418;27;20058;-62
2022/10/26 01:54:01;;;;;;;6.43;2.42;;;;;;;10.26;71.22;101853.38;4953445;27;20043;-63
2022/10/26 01:56:40;;;;;;;11.35;2.50;;;;;;;10.34;69.37;101836.97;4955869;27;20050;-63
2022/10/26 01:59:38;;;;;;;6.57;2.40;;;;;;;10.43;68.51;101840.53;4969723;27;20664;-63
2022/10/26 02:03:06;;;;;;;8.32;2.20;;;;;;;10.51;66.99;101838.88;4959274;27;20073;-63
2022/10/26 02:06:13;;;;;;;9.13;2.33;;;;;;;10.53;66.73;101831.91;4937203;27;20049;-63
2022/10/26 02:09:03;;;;;;;5.75;2.00;;;;;;;10.50;64.57;101821.44;4964536;27;20320;-61
2022/10/26 02:11:47;;;;;;;10.23;2.10;;;;;;;10.53;65.22;101817.13;4980557;27;20031;-61
2022/10/26 02:14:59;;;;;;;6.03;2.33;;;;;;;10.67;65.60;101822.44;4973716;27;20047;-62
2022/10/26 02:17:37;;;;;;;7.78;2.00;;;;;;;10.65;65.15;101813.72;4955316;27;20043;-62
2022/10/26 02:20:22;;;;;;;9.20;2.40;;;;;;;10.70;64.59;101809.38;4948712;27;20081;-64
2022/10/26 02:23:06;;;;;;;5.90;2.15;;;;;;;10.79;65.06;101819.06;4982287;27;20035;-63
2022/10/26 02:25:56;;;;;;;6.28;2.17;;;;;;;10.80;65.27;101800.75;4931436;27;20062;-63
2022/10/26 02:28:51;;;;;;;7.60;1.80;;;;;;;10.90;65.60;101806.06;4994034;27;20066;-63
2022/10/26 02:31:42;;;;;;;3.67;1.80;;;;;;;10.99;64.74;101806.13;4935201;27;20427;-63
2022/10/26 02:34:58;;;;;;;7.47;2.10;;;;;;;10.96;63.79;101800.88;4972132;27;20386;-63
2022/10/26 02:40:49;;;;;;;6.20;2.10;;;;;;;10.32;64.23;101666.25;4942921;27;20450;-64
2022/10/26 02:43:34;;;;;;;6.25;2.15;;;;;;;11.27;63.69;101785.34;4901385;27;20055;-62
2022/10/26 02:46:30;;;;;;;6.40;2.38;;;;;;;11.27;63.77;101780.13;4991604;27;21311;-63
2022/10/26 02:49:08;;;;;;;9.88;2.38;;;;;;;11.25;63.59;101771.38;4981090;27;20395;-63
2022/10/26 02:52:00;;;;;;;7.20;2.22;;;;;;;11.18;63.90;101750.44;4923469;28;20534;-63
2022/10/26 02:55:13;;;;;;;5.97;2.08;;;;;;;11.27;63.29;101751.34;4929624;28;20290;-63
2022/10/26 02:58:02;;;;;;;7.47;2.15;;;;;;;11.34;62.83;101755.75;4959659;27;20053;-62
2022/10/26 03:00:45;;;;;;;13.00;2.35;;;;;;;11.38;62.63;101752.25;4972357;27;20429;-60
2022/10/26 03:03:37;;;;;;;4.35;1.73;;;;;;;11.26;63.36;101741.72;4976464;27;20177;-63
2022/10/26 03:06:26;;;;;;;7.90;2.35;;;;;;;11.23;63.57;101740.88;4942209;28;20445;-63
2022/10/26 03:12:16;;;;;;;6.00;2.15;;;;;;;11.22;63.49;101731.25;4974173;28;20048;-62
2022/10/26 03:15:05;;;;;;;8.27;1.90;;;;;;;11.19;63.51;101726.00;4960885;28;20061;-62
2022/10/26 03:17:59;;;;;;;9.25;2.10;;;;;;;11.13;63.63;101717.25;4989267;28;20124;-61
2022/10/26 03:20:53;;;;;;;4.28;1.77;;;;;;;11.13;62.28;101715.53;4943217;28;20043;-63
2022/10/26 03:26:34;;;;;;;6.07;1.88;;;;;;;11.18;62.73;101711.19;4923269;28;20113;-63
2022/10/26 03:29:32;;;;;;;7.55;2.30;;;;;;;11.16;62.63;101710.31;4962436;28;21359;-63
2022/10/26 03:32:13;;;;;;;12.90;2.13;;;;;;;11.17;62.45;101706.81;4971219;28;20472;-63
2022/10/26 03:34:48;;;;;;;;;;;;;;;11.16;61.68;101698.97;4978359;28;20332;-63
2022/10/26 03:40:16;;;;;;;6.80;1.90;;;;;;;11.15;62.17;101687.63;4965363;28;20061;-64
2022/10/26 03:43:12;;;;;;;5.90;1.90;;;;;;;11.12;61.66;101703.31;4973184;28;20059;-63
2022/10/26 03:46:06;;;;;;;11.25;2.15;;;;;;;11.18;61.21;101700.72;4953704;28;20581;-62
2022/10/26 03:48:41;;;;;;;4.82;1.55;;;;;;;11.25;60.98;101703.34;4960850;28;20044;-60
2022/10/26 03:51:22;;;;;;;7.57;1.70;;;;;;;11.26;60.80;101689.38;4971203;27;20067;-62
2022/10/26 03:53:57;;;;;;;4.55;1.65;;;;;;;11.30;60.67;101701.63;4978147;27;20050;-62
2022/10/26 03:56:53;;;;;;;8.03;2.10;;;;;;;11.31;60.23;101700.78;4928549;28;20076;-62
2022/10/26 03:59:41;;;;;;;5.55;1.90;;;;;;;11.28;59.74;101696.38;4915258;27;20058;-62
2022/10/26 04:02:37;;;;;;;4.32;1.85;;;;;;;11.30;59.68;101691.16;5001811;27;20047;-62
2022/10/26 04:05:16;;;;;;;6.10;1.90;;;;;;;11.30;59.54;101686.78;4985519;27;20492;-62
2022/10/26 04:08:03;;;;;;;4.65;2.00;;;;;;;10.68;59.63;101611.56;4964406;27;20063;-64
2022/10/26 04:10:49;;;;;;;7.35;1.90;;;;;;;11.25;59.65;101698.13;4921378;27;20048;-62
2022/10/26 04:13:34;;;;;;;7.75;2.03;;;;;;;11.26;59.43;101694.63;4956949;27;20100;-63
2022/10/26 04:16:18;;;;;;;10.55;2.28;;;;;;;11.28;59.89;101698.13;4953310;27;20055;-62
2022/10/26 04:19:14;;;;;;;5.68;2.15;;;;;;;11.22;59.29;101689.38;4933942;27;20570;-63
2022/10/26 04:24:55;;;;;;;7.82;1.90;;;;;;;11.26;59.19;101689.38;4978387;27;20907;-64
2022/10/26 04:27:52;;;;;;;5.30;2.13;;;;;;;11.23;59.54;101690.25;4968681;27;20122;-62
2022/10/26 04:30:32;;;;;;;4.45;1.83;;;;;;;11.14;59.38;101667.56;4895648;28;20110;-62
2022/10/26 04:36:03;;;;;;;7.22;1.70;;;;;;;11.10;58.97;101657.94;4965778;27;20051;-63
2022/10/26 04:38:43;;;;;;;4.30;1.80;;;;;;;11.09;59.64;101666.69;4958865;27;20089;-63
2022/10/26 04:41:26;;;;;;;4.15;1.60;;;;;;;11.05;59.41;101672.75;4981893;27;20554;-63
2022/10/26 04:44:16;;;;;;;3.47;1.70;;;;;;;11.02;60.02;101664.91;4970578;27;20050;-63
2022/10/26 04:46:55;;;;;;;8.30;2.05;;;;;;;10.96;60.15;101659.66;4938220;28;20714;-63
2022/10/26 04:49:48;;;;;;;6.82;2.38;;;;;;;10.87;60.65;101667.44;4972673;27;20066;-62
2022/10/26 04:52:32;;;;;;;5.93;2.08;;;;;;;10.85;61.04;101671.78;4908392;27;20062;-62
2022/10/26 04:55:11;;;;;;;14.05;2.22;;;;;;;10.85;61.51;101667.44;4986148;27;20464;-60
2022/10/26 04:57:57;;;;;;;6.93;2.35;;;;;;;10.85;61.18;101666.56;4888244;27;20039;-63
2022/10/26 05:00:55;;;;;;;7.70;2.20;;;;;;;10.75;61.18;101676.97;4913268;27;20053;-60
2022/10/26 05:03:45;;;;;;;7.47;2.20;;;;;;;10.71;61.85;101685.66;4936389;28;20063;-62
2022/10/26 05:06:26;;;;;;;10.15;2.17;;;;;;;10.65;62.10;101683.00;4956176;28;20129;-63
2022/10/26 05:09:10;;;;;;;7.43;2.05;;;;;;;9.82;62.44;101557.03;4881898;28;20063;-60
2022/10/26 05:11:58;;;;;;;6.53;1.90;;;;;;;10.62;62.66;101679.50;4979765;27;20040;-63
2022/10/26 05:14:45;;;;;;;9.27;2.28;;;;;;;10.39;62.58;101645.41;4873793;28;20060;-63
2022/10/26 05:17:43;;;;;;;4.68;1.90;;;;;;;10.59;62.66;101675.16;4925744;28;20052;-63
2022/10/26 05:23:25;;;;;;;8.70;2.08;;;;;;;10.31;63.52;101632.28;4953601;27;20074;-63
2022/10/26 05:26:31;;;;;;;7.38;2.40;;;;;;;10.48;63.28;101676.78;4934474;28;20345;-62
2022/10/26 05:29:19;;;;;;;6.43;2.10;;;;;;;10.41;64.04;101675.91;4948497;27;21051;-62
2022/10/26 05:31:56;;;;;;;8.93;2.05;;;;;;;10.40;64.12;101683.72;4985465;27;20077;-62
2022/10/26 05:34:42;;;;;;;11.23;2.50;;;;;;;10.39;64.12;101680.25;4955379;27;20047;-63
2022/10/26 05:37:36;;;;;;;5.13;2.00;;;;;;;10.35;64.33;101681.94;4884907;28;20070;-62
2022/10/26 05:40:22;;;;;;;8.57;2.78;;;;;;;10.29;64.58;101684.53;4943976;28;20048;-63
2022/10/26 05:43:26;;;;;;;5.80;2.05;;;;;;;10.20;65.41;101687.00;4931295;28;20047;-63
2022/10/26 05:46:38;;;;;;;6.30;2.15;;;;;;;10.14;65.88;101692.22;4942167;27;20084;-62
2022/10/26 05:52:25;;;;;;;7.18;2.35;;;;;;;10.00;66.30;101689.47;4911972;28;20051;-63
2022/10/26 05:55:12;;;;;;;9.48;2.20;;;;;;;9.97;66.81;101688.56;4897507;28;20043;-62
2022/10/26 05:57:59;;;;;;;6.78;2.33;;;;;;;9.91;67.14;101695.50;4963848;27;20044;-62
2022/10/26 06:01:46;;;;;;;8.98;2.25;;;;;;;9.84;67.33;101704.13;4948267;27;20047;-63
2022/10/26 06:04:49;;;;;;;9.73;2.15;;;;;;;9.77;67.58;101702.31;4958406;27;20067;-62
2022/10/26 06:07:42;;;;;;;8.82;2.30;;;;;;;9.72;68.04;101698.78;4995507;27;20054;-61
2022/10/26 06:10:20;;;;;;;11.43;2.70;;;;;;;9.66;68.33;101703.91;4975099;27;20231;-62
2022/10/26 06:13:21;;;;;;;11.43;2.63;;;;;;;9.60;68.61;101714.31;4963541;27;20053;-61
2022/10/26 06:16:14;;;;;;;6.22;2.20;;;;;;;9.47;69.02;101711.56;4926003;27;20234;-61
2022/10/26 06:19:12;;;;;;;11.18;2.35;;;;;;;9.47;69.30;101724.59;4943174;27;20035;-62
2022/10/26 06:22:22;;;;;;;6.20;2.20;;;;;;;9.39;69.65;101720.16;5012424;27;20059;-64
2022/10/26 06:25:09;;;;;;;10.63;2.47;;;;;;;9.30;70.11;101720.91;4984516;27;20061;-62
2022/10/26 06:28:07;;;;;;;12.35;3.17;;;;;;;9.20;70.51;101719.06;4956259;27;20074;-63
2022/10/26 06:30:45;;;;;;;11.02;2.55;;;;;;;9.13;70.71;101722.44;4934242;27;20046;-62
2022/10/26 06:33:39;;;;;;;10.35;2.55;;;;;;;9.04;70.76;101724.09;4981130;27;20113;-63
2022/10/26 06:36:52;;;;;;;6.55;2.28;;;;;;;8.94;71.45;101717.00;4965573;27;20051;-63
2022/10/26 06:39:44;;;;;;;10.77;2.65;;;;;;;8.89;71.74;101721.28;4984691;27;20054;-62
2022/10/26 06:42:37;;;;;;;14.82;3.65;;;;;;;8.78;72.02;101715.88;4971841;27;20077;-62
2022/10/26 06:45:18;;;;;;;11.95;3.40;;;;;;;8.71;72.48;101718.38;4977757;27;20050;-62
2022/10/26 06:48:03;;;;;;;11.80;4.43;;;;;;;8.62;73.06;101721.75;4955571;27;20107;-62
2022/10/26 06:51:00;;;;;;;8.45;2.78;;;;;;;8.34;73.47;101683.97;4979038;27;20050;-62
2022/10/26 06:53:53;;;;;;;9.63;2.90;;;;;;;8.52;73.45;101718.13;4928242;27;20054;-61
2022/10/26 06:56:37;;;;;;;9.43;2.58;;;;;;;8.44;73.71;101722.34;4967597;27;20074;-62
2022/10/26 06:59:19;;;;;;;8.88;2.65;;;;;;;8.40;73.96;101717.94;4992503;27;20051;-62
2022/10/26 07:02:07;;;;;;;8.00;3.30;;;;;;;8.35;74.24;101719.56;4989778;27;20142;-63
2022/10/26 07:04:50;;;;;;;6.93;2.97;;;;;;;8.29;74.73;101720.34;4924077;28;20059;-62
2022/10/26 07:07:35;;;;;;;9.73;2.67;;;;;;;8.19;75.01;101719.31;4967551;28;20216;-62
2022/10/26 07:10:10;;;;;;;9.98;2.85;;;;;;;8.05;75.60;101715.59;4971493;28;20096;-62
2022/10/26 07:13:01;;;;;;;9.40;2.65;;;;;;;8.05;75.65;101715.59;4953206;28;20109;-62
2022/10/26 07:18:47;;;;;;;11.15;2.63;;;;;;;7.91;76.34;101715.34;4935281;28;20253;-62
2022/10/26 07:21:30;;;;;;;7.88;2.78;;;;;;;7.84;77.07;101723.91;4931876;28;20043;-62
2022/10/26 07:24:32;;;;;;;10.13;3.90;;;;;;;7.76;77.32;101728.97;4947524;28;20052;-62
2022/10/26 07:27:18;;;;;;;11.52;3.58;;;;;;;7.69;77.73;101721.88;4959225;27;20066;-62
2022/10/26 07:30:02;;;;;;;10.60;3.75;;;;;;;7.61;78.11;101728.66;4941303;27;20052;-61
2022/10/26 07:32:43;;;;;;;12.50;3.42;;;;;;;7.55;78.28;101723.34;4964955;28;20089;-62
2022/10/26 07:35:22;;;;;;;11.25;3.75;;;;;;;7.50;78.43;101719.78;4923488;28;20060;-63
2022/10/26 07:38:06;;;;;;;16.35;5.47;;;;;;;7.37;78.88;101712.59;4971048;27;20050;-62
2022/10/26 07:40:53;;;;;;;11.57;4.18;;;;;;;7.38;79.17;101717.81;4936886;28;20054;-62
2022/10/26 07:43:51;;;;;;;11.80;4.38;;;;;;;7.38;79.63;101727.34;4930789;28;20097;-62
2022/10/26 07:46:37;;;;;;;8.25;3.30;;;;;;;7.33;79.65;101722.91;4974644;27;20081;-62
2022/10/26 07:49:16;;;;;;;7.38;2.70;;;;;;;7.28;79.63;101719.34;4954336;28;20058;-62
2022/10/26 07:52:09;;;;;;;10.68;3.95;;;;;;;7.15;80.14;101717.34;4932251;27;20078;-63
2022/10/26 07:55:07;;;;;;;9.23;3.60;;;;;;;7.15;80.39;101719.94;4945384;27;20052;-61
2022/10/26 07:58:14;;;;;;;12.65;4.47;;;;;;;7.10;80.65;101731.97;4927216;28;20102;-62
2022/10/26 08:01:01;;;;;;;17.67;7.32;;;;;;;7.01;80.71;101721.34;4945635;28;20054;-63
2022/10/26 08:06:32;;;;;;;11.55;4.38;;;;;;;6.97;80.93;101732.56;4939265;28;20039;-63
2022/10/26 08:09:21;;;;;;;9.75;3.63;;;;;;;6.94;81.09;101732.47;4876868;28;20502;-63
2022/10/26 08:12:00;;;;;;;9.15;3.97;;;;;;;6.94;81.12;101732.47;4936084;28;20051;-61
2022/10/26 08:21:04;;;;;;;7.70;3.00;;;;;;;6.78;81.45;101732.13;4848797;28;20109;-64
2022/10/26 08:23:46;;;;;;;8.48;3.40;;;;;;;6.70;81.62;101731.09;4874480;28;20061;-63
2022/10/26 08:26:27;;;;;;;6.93;2.95;;;;;;;6.70;81.78;101733.69;4899159;28;20040;-63
2022/10/26 08:29:06;;;;;;;9.10;4.78;;;;;;;6.66;81.78;101732.75;4920268;28;20058;-63
2022/10/26 08:31:45;;;;;;;12.63;3.20;;;;;;;6.71;81.96;101725.03;4893197;28;20517;-63
2022/10/26 08:34:32;;;;;;;6.78;3.13;;;;;;;6.73;81.72;101733.75;4924514;28;20110;-62
2022/10/26 08:37:15;;;;;;;10.77;3.13;;;;;;;6.72;81.35;101733.72;4910558;28;20044;-63
2022/10/26 08:39:52;;;;;;;6.97;2.97;;;;;;;6.73;81.39;101732.88;4911256;28;20041;-63
2022/10/26 08:42:36;;;;;;;12.15;3.13;;;;;;;6.65;81.40;101725.78;4915271;28;20052;-62
2022/10/26 08:45:29;;;;;;;10.43;3.13;;;;;;;6.70;81.55;101744.06;4926735;28;20586;-63
2022/10/26 08:48:25;;;;;;;11.55;3.25;;;;;;;6.66;81.56;101737.94;4903210;28;20055;-63
2022/10/26 08:51:23;;;;;;;5.82;2.72;;;;;;;6.65;81.64;101730.09;4914582;28;20128;-62
2022/10/26 08:54:08;;;;;;;9.75;3.38;;;;;;;6.59;81.88;101729.94;4956890;28;20058;-62
2022/10/26 08:56:52;;;;;;;13.82;4.80;;;;;;;6.56;81.86;101730.75;4935586;27;20047;-63
2022/10/26 08:59:39;;;;;;;8.50;3.60;;;;;;;6.56;81.97;101740.25;4923613;28;20111;-62
2022/10/26 09:02:17;;;;;;;12.10;3.13;;;;;;;6.26;82.10;101685.06;4958466;27;20059;-63
2022/10/26 09:04:57;;;;;;;8.43;3.40;;;;;;;6.53;82.03;101741.06;4945112;27;20052;-63
2022/10/26 09:08:10;;;;;;;9.48;3.70;;;;;;;6.55;82.13;101738.53;4917057;28;20036;-62
2022/10/26 09:11:01;;;;;;;11.55;5.75;;;;;;;6.56;81.98;101740.25;4957429;28;20064;-64
2022/10/26 09:13:47;;;;;;;8.25;5.10;;;;;;;6.50;81.96;101734.94;4944028;27;20050;-63
2022/10/26 09:16:41;;;;;;;8.05;3.03;;;;;;;6.59;81.95;101740.31;4959115;27;20244;-64
2022/10/26 09:19:41;;;;;;;7.45;3.03;;;;;;;6.62;81.74;101748.22;4972579;27;20074;-64
2022/10/26 09:22:36;;;;;;;11.82;3.08;;;;;;;6.46;81.41;101724.47;4962390;27;20189;-64
2022/10/26 09:25:32;;;;;;;9.15;3.30;;;;;;;6.54;81.41;101729.84;4939859;27;20062;-65
2022/10/26 09:28:25;;;;;;;10.93;3.05;;;;;;;6.64;81.13;101752.59;4911475;28;20050;-62
2022/10/26 09:31:07;;;;;;;9.68;2.83;;;;;;;6.41;81.18;101710.47;4971970;27;20035;-62
2022/10/26 09:33:55;;;;;;;6.40;2.90;;;;;;;6.64;81.24;101759.50;4942972;28;20077;-63
2022/10/26 09:36:40;;;;;;;8.02;3.60;;;;;;;6.59;81.41;101751.63;4959629;27;20434;-63
2022/10/26 09:39:42;;;;;;;8.63;3.20;;;;;;;6.58;81.80;101748.97;4962548;28;20046;-62
2022/10/26 09:42:46;;;;;;;8.00;3.50;;;;;;;6.57;81.56;101739.44;4966225;27;20047;-63
2022/10/26 09:45:54;;;;;;;9.65;3.38;;;;;;;6.60;81.74;101739.50;4894716;28;21996;-62
2022/10/26 09:49:30;;;;;;;6.57;3.03;;;;;;;6.60;81.51;101739.50;4940570;28;20116;-63
2022/10/26 09:52:08;;;;;;;9.02;3.10;;;;;;;6.32;81.72;101684.31;4961054;27;20499;-63
2022/10/26 09:54:58;;;;;;;7.75;2.78;;;;;;;6.60;81.90;101736.91;4927402;27;20048;-62
2022/10/26 09:57:57;;;;;;;8.77;2.72;;;;;;;6.60;81.60;101739.50;4916631;28;20090;-63
2022/10/26 10:00:48;;;;;;;9.82;2.95;;;;;;;6.60;81.35;101727.38;4928603;28;20044;-62
2022/10/26 10:06:33;;;;;;;5.93;3.33;;;;;;;6.45;80.93;101712.31;4935912;28;20079;-64
2022/10/26 10:09:51;;;;;;;11.35;3.05;;;;;;;6.39;81.08;101707.00;4900151;28;20096;-64
2022/10/26 10:16:28;;;;;;;7.03;2.70;;;;;;;6.21;80.89;101707.41;4920897;28;20052;-63
2022/10/26 10:19:39;;;;;;;7.90;3.38;;;;;;;5.92;80.56;101666.88;4890756;28;20063;-63
2022/10/26 10:22:26;;;;;;;14.63;3.63;;;;;;;6.09;80.86;101711.41;4920760;28;20050;-63
2022/10/26 10:25:42;;;;;;;7.82;2.78;;;;;;;6.03;81.00;101702.63;4868464;28;20287;-63
2022/10/26 10:28:44;;;;;;;10.13;3.40;;;;;;;6.01;80.66;101698.25;4922646;28;20182;-62
2022/10/26 10:31:27;;;;;;;6.97;4.10;;;;;;;5.99;80.69;101702.53;4912920;28;20097;-64
2022/10/26 10:34:26;;;;;;;8.00;3.00;;;;;;;5.94;80.45;101697.25;4873443;28;20136;-63
2022/10/26 10:37:03;;;;;;;8.20;3.40;;;;;;;5.93;80.46;101682.47;4919207;28;20129;-64
2022/10/26 10:40:13;;;;;;;8.68;3.10;;;;;;;5.69;80.51;101635.13;4880851;28;20044;-63
2022/10/26 10:45:52;;;;;;;6.30;2.67;;;;;;;5.94;80.50;101681.69;4901589;28;20115;-63
2022/10/26 10:49:16;;;;;;;6.90;2.78;;;;;;;5.88;80.53;101665.91;4921774;28;21305;-63
2022/10/26 10:51:57;;;;;;;8.20;2.55;;;;;;;5.62;80.54;101624.63;4970283;27;20049;-63
2022/10/26 10:54:38;;;;;;;10.23;3.00;;;;;;;5.65;80.69;101635.94;4932080;28;20082;-64
2022/10/26 10:57:28;;;;;;;6.30;2.80;;;;;;;5.85;80.57;101673.63;4946465;28;20043;-62
2022/10/26 11:03:34;;;;;;;8.75;2.78;;;;;;;5.88;80.76;101665.03;4957814;28;20048;-62
2022/10/26 11:06:19;;;;;;;6.63;2.63;;;;;;;5.86;81.05;101649.41;4878424;28;20086;-62
2022/10/26 11:12:09;;;;;;;6.05;2.58;;;;;;;5.83;81.39;101647.63;4925018;28;20059;-62
2022/10/26 11:15:11;;;;;;;6.45;3.15;;;;;;;5.84;81.81;101656.28;4899292;28;20040;-62
2022/10/26 11:18:02;;;;;;;8.32;2.70;;;;;;;5.84;82.20;101653.69;4886715;28;20060;-63
2022/10/26 11:21:04;;;;;;;9.00;2.67;;;;;;;5.83;82.13;101651.94;4881007;28;20106;-63
2022/10/26 11:23:57;;;;;;;11.27;3.15;;;;;;;5.81;82.32;101648.44;4903101;28;20051;-62
2022/10/26 11:26:46;;;;;;;4.50;2.47;;;;;;;5.80;82.34;101647.56;4916911;28;20781;-62
2022/10/26 11:29:40;;;;;;;13.13;4.35;;;;;;;5.81;82.14;101644.09;4886958;28;20048;-62
2022/10/26 11:32:28;;;;;;;7.13;3.30;;;;;;;5.78;82.48;101653.53;4863292;28;20073;-63
2022/10/26 11:38:25;;;;;;;6.18;2.42;;;;;;;5.72;82.85;101633.53;4883664;28;20061;-62
2022/10/26 11:41:40;;;;;;;27.17;10.70;;;;;;;5.72;82.96;101635.25;4867026;28;20044;-63
2022/10/26 11:44:27;;;;;;;24.20;9.57;;;;;;;5.70;82.61;101634.31;4908176;28;20045;-62
2022/10/26 11:47:20;;;;;;;10.65;4.63;;;;;;;5.29;82.58;101580.56;4883937;28;20056;-64
2022/10/26 11:50:18;;;;;;;21.45;6.10;;;;;;;4.84;82.44;101529.28;4902237;28;20041;-63
2022/10/26 11:52:58;;;;;;;52.92;21.55;;;;;;;5.26;82.60;101621.06;4933862;28;20048;-64
2022/10/26 11:56:01;;;;;;;35.60;14.27;;;;;;;4.83;82.71;101568.06;4938568;28;20064;-62
2022/10/26 11:58:58;;;;;;;23.05;9.75;;;;;;;5.01;83.55;101615.19;4941184;28;20055;-63
2022/10/26 12:01:37;;;;;;;20.80;7.95;;;;;;;4.89;84.18;101615.75;4915010;28;20116;-62
2022/10/26 12:04:18;;;;;;;28.38;8.75;;;;;;;4.82;84.67;101618.09;4912052;28;20040;-61
2022/10/26 12:07:05;;;;;;;23.67;8.45;;;;;;;4.63;84.54;101607.22;4891328;28;20036;-62
2022/10/26 12:09:59;;;;;;;19.38;8.40;;;;;;;4.50;84.73;101613.75;4909670;28;20072;-63
2022/10/26 12:12:46;;;;;;;16.92;8.50;;;;;;;4.33;85.01;101584.75;4931089;28;20049;-63
2022/10/26 12:15:45;;;;;;;18.80;8.02;;;;;;;4.00;85.25;101545.81;4940657;28;20082;-61
2022/10/26 12:18:44;;;;;;;25.02;8.82;;;;;;;4.24;85.61;101594.84;4896323;28;20094;-62
2022/10/26 12:24:34;;;;;;;24.33;8.10;;;;;;;4.15;86.15;101589.38;4920973;28;20294;-62
2022/10/26 12:27:34;;;;;;;24.08;9.82;;;;;;;4.06;86.54;101576.16;4970851;28;20063;-62
2022/10/26 12:30:41;;;;;;;30.88;13.77;;;;;;;4.19;86.71;101593.81;4946613;28;20036;-62
2022/10/26 12:34:27;;;;;;;25.45;10.85;;;;;;;4.13;86.50;101591.03;4939151;28;20051;-63
2022/10/26 12:37:30;;;;;;;28.45;10.73;;;;;;;4.02;86.87;101594.97;4909524;28;20378;-63
2022/10/26 12:40:48;;;;;;;24.38;10.48;;;;;;;3.96;87.37;101589.63;4891601;28;20040;-62
2022/10/26 12:43:45;;;;;;;27.15;10.38;;;;;;;3.91;87.32;101591.19;4823832;29;20266;-62
2022/10/26 12:49:59;;;;;;;26.35;10.75;;;;;;;3.85;87.80;101587.59;4783320;28;20048;-61
2022/10/26 12:52:57;;;;;;;20.88;9.77;;;;;;;3.77;87.68;101589.06;4766314;29;20299;-62
2022/10/26 12:55:55;;;;;;;29.35;10.50;;;;;;;3.70;87.92;101587.09;4776053;29;20087;-62
2022/10/26 12:58:58;;;;;;;25.50;10.60;;;;;;;3.69;88.35;101590.47;4779804;29;20052;-62
2022/10/26 13:02:13;;;;;;;25.20;9.95;;;;;;;3.66;88.33;101595.56;4794846;29;20044;-62
2022/10/26 13:05:39;;;;;;;26.75;10.60;;;;;;;3.62;88.88;101578.19;4783605;29;20059;-62
2022/10/26 13:08:49;;;;;;;23.35;9.45;;;;;;;3.30;88.84;101528.91;4755133;29;20097;-62
2022/10/26 13:11:40;;;;;;;22.90;10.05;;;;;;;3.56;88.86;101578.00;4798518;29;20069;-62
2022/10/26 13:14:39;;;;;;;25.02;9.68;;;;;;;3.46;88.96;101564.75;4730627;29;20053;-63
2022/10/26 13:17:31;;;;;;;23.90;10.25;;;;;;;3.49;88.89;101571.72;4809691;29;20055;-62
2022/10/26 13:23:23;;;;;;;25.05;9.85;;;;;;;3.45;89.01;101575.94;4894495;28;20108;-63
2022/10/26 13:26:21;;;;;;;26.25;10.02;;;;;;;3.36;88.95;101578.19;4906454;28;20045;-62
2022/10/26 13:29:03;;;;;;;25.50;9.68;;;;;;;3.31;89.19;101576.28;4886629;28;20056;-62
2022/10/26 13:31:58;;;;;;;22.10;9.57;;;;;;;3.27;89.29;101575.31;4905683;28;20791;-62
2022/10/26 13:34:38;;;;;;;20.85;8.85;;;;;;;3.25;89.40;101582.13;4871490;28;20037;-62
2022/10/26 13:37:25;;;;;;;23.02;9.70;;;;;;;3.23;89.66;101576.03;4839327;28;20121;-63
2022/10/26 13:40:08;;;;;;;23.88;9.05;;;;;;;3.21;89.33;101577.66;4873043;28;20131;-63
2022/10/26 13:42:57;;;;;;;19.45;8.25;;;;;;;3.23;89.95;101578.63;4921414;28;20135;-61
2022/10/26 13:45:51;;;;;;;25.65;9.75;;;;;;;3.21;89.68;101569.94;4915675;28;20058;-62
2022/10/26 13:48:43;;;;;;;20.88;8.70;;;;;;;3.17;89.51;101568.06;4873109;28;20041;-62
2022/10/26 13:51:41;;;;;;;24.30;8.75;;;;;;;3.10;89.62;101566.09;4911424;28;20058;-62
2022/10/26 13:54:35;;;;;;;20.88;10.05;;;;;;;3.12;89.38;101559.25;4882085;28;20113;-63
2022/10/26 13:57:37;;;;;;;22.17;9.00;;;;;;;3.07;90.35;101545.31;4907267;28;20314;-63
2022/10/26 14:00:24;;;;;;;17.27;8.95;;;;;;;3.23;91.04;101557.94;4942018;28;20040;-62
2022/10/26 14:03:00;;;;;;;19.95;8.68;;;;;;;3.32;91.53;101563.44;4923706;28;21281;-63
2022/10/26 14:05:55;;;;;;;23.95;7.88;;;;;;;3.31;91.77;101556.50;4916038;28;20052;-62
2022/10/26 14:08:43;;;;;;;22.30;8.10;;;;;;;3.32;91.56;101555.69;4888236;28;20079;-62
2022/10/26 14:11:28;;;;;;;19.40;7.65;;;;;;;3.33;92.01;101549.69;4926339;28;20040;-61
2022/10/26 14:14:18;;;;;;;20.65;7.03;;;;;;;3.29;91.79;101547.81;4946336;28;20105;-61
2022/10/26 14:17:10;;;;;;;22.88;8.25;;;;;;;3.32;91.91;101547.94;4945868;28;20048;-61
2022/10/26 14:19:51;;;;;;;16.83;7.25;;;;;;;3.31;92.16;101541.00;4950874;28;20044;-61
2022/10/26 14:22:44;;;;;;;19.65;7.65;;;;;;;3.36;92.65;101536.84;4949481;28;20061;-62
2022/10/26 14:25:34;;;;;;;16.73;7.43;;;;;;;3.01;92.80;101473.69;4901239;28;20085;-61
2022/10/26 14:28:31;;;;;;;14.63;7.20;;;;;;;3.37;92.93;101546.38;4962195;28;20058;-61
2022/10/26 14:31:21;;;;;;;18.73;6.88;;;;;;;3.40;93.17;101540.44;4889794;28;20053;-62